Time;durP1;ratioP1;P1;durP2;ratioP2;P2;SDS_P1;SDS_P2;PMS_P1;PMS_P2;Temp;Humidity;BMP_temperature;BMP_pressure;BME280_temperature;BME280_humidity;BME280_pressure;Samples;Min_cycle;Max_cycle;Signal;HPM_P1;HPM_P2
2023/06/04 00:00:48;;;;;;;2.80;1.07;;;16.60;80.70;;;;;;7288975;19;20188;-82
2023/06/04 00:03:14;;;;;;;1.97;1.30;;;16.60;80.80;;;;;;7289166;19;20633;-82
2023/06/04 00:05:40;;;;;;;4.03;1.40;;;16.60;80.80;;;;;;7289069;19;20198;-82
2023/06/04 00:08:05;;;;;;;4.00;1.40;;;16.70;81.10;;;;;;7288053;19;20192;-82
2023/06/04 00:10:33;;;;;;;2.57;1.00;;;16.60;81.00;;;;;;7289864;19;20191;-81
2023/06/04 00:12:59;;;;;;;3.83;1.10;;;16.60;81.20;;;;;;7288744;19;20189;-81
2023/06/04 00:15:25;;;;;;;4.67;1.13;;;16.50;81.90;;;;;;7310400;19;20272;-80
2023/06/04 00:17:51;;;;;;;3.13;1.00;;;16.50;81.70;;;;;;7302504;19;20192;-82
2023/06/04 00:20:18;;;;;;;4.07;1.10;;;16.50;81.80;;;;;;7288614;19;20196;-81
2023/06/04 00:22:44;;;;;;;4.80;1.40;;;16.50;82.00;;;;;;7287740;19;20235;-82
2023/06/04 00:25:10;;;;;;;4.80;1.23;;;16.50;81.90;;;;;;7288722;19;20189;-82
2023/06/04 00:27:36;;;;;;;4.07;1.20;;;16.40;83.70;;;;;;7286927;19;20325;-81
2023/06/04 00:30:03;;;;;;;2.90;1.13;;;16.30;83.90;;;;;;7288921;19;20988;-82
2023/06/04 00:32:29;;;;;;;3.20;1.13;;;16.20;84.30;;;;;;7288756;19;20720;-82
2023/06/04 00:34:57;;;;;;;1.70;1.10;;;16.00;84.80;;;;;;7310121;19;20185;-81
2023/06/04 00:37:24;;;;;;;4.47;1.23;;;16.00;86.00;;;;;;7288661;19;20722;-81
2023/06/04 00:39:50;;;;;;;4.33;1.33;;;15.90;85.50;;;;;;7288334;19;20189;-81
2023/06/04 00:42:16;;;;;;;4.93;1.20;;;15.80;86.40;;;;;;7287929;19;20730;-81
2023/06/04 00:44:44;;;;;;;2.73;0.87;;;15.70;86.50;;;;;;7288160;19;20644;-81
2023/06/04 00:47:16;;;;;;;5.93;1.20;;;15.60;86.70;;;;;;7287744;19;20185;-81
2023/06/04 00:49:42;;;;;;;4.43;1.10;;;15.60;87.40;;;;;;7290482;19;20617;-81
2023/06/04 00:52:09;;;;;;;5.47;1.10;;;15.50;88.00;;;;;;7286424;19;20195;-81
2023/06/04 00:54:37;;;;;;;2.70;1.27;;;15.40;88.00;;;;;;7286553;19;20671;-81
2023/06/04 00:57:04;;;;;;;4.73;1.10;;;15.40;88.60;;;;;;7287372;19;20177;-81
2023/06/04 00:59:34;;;;;;;7.40;1.40;;;15.30;89.70;;;;;;7287056;19;20179;-81
2023/06/04 01:02:03;;;;;;;5.37;1.13;;;15.30;89.70;;;;;;7286853;19;20192;-81
2023/06/04 01:05:00;;;;;;;3.80;1.27;;;15.30;89.40;;;;;;7285855;19;20205;-81
2023/06/04 01:07:30;;;;;;;3.07;1.10;;;15.40;89.50;;;;;;7280343;19;20689;-80
2023/06/04 01:09:57;;;;;;;2.37;1.13;;;15.50;88.70;;;;;;7301697;19;20290;-80
2023/06/04 01:12:23;;;;;;;4.17;1.30;;;15.50;88.60;;;;;;7305657;19;20251;-81
2023/06/04 01:14:49;;;;;;;8.70;1.80;;;15.60;88.30;;;;;;7287199;19;20192;-82
2023/06/04 01:17:28;;;;;;;3.60;1.20;;;15.60;88.60;;;;;;7288284;19;20189;-81
2023/06/04 01:20:05;;;;;;;5.33;1.40;;;15.50;88.80;;;;;;7287745;19;20200;-81
2023/06/04 01:22:37;;;;;;;3.63;1.17;;;15.60;89.00;;;;;;7182079;19;2006226;-82
2023/06/04 01:25:21;;;;;;;2.23;1.10;;;15.50;89.00;;;;;;7286965;19;20195;-82
2023/06/04 01:27:55;;;;;;;1.63;0.90;;;15.50;89.20;;;;;;7286022;19;20192;-82
2023/06/04 01:30:28;;;;;;;4.53;1.30;;;15.50;89.20;;;;;;7285397;19;20191;-81
2023/06/04 01:32:54;;;;;;;6.07;1.30;;;15.50;89.30;;;;;;7286734;19;20181;-82
2023/06/04 01:35:21;;;;;;;4.47;1.30;;;15.40;90.00;;;;;;7284757;19;20286;-81
2023/06/04 01:37:48;;;;;;;5.07;1.20;;;15.30;90.30;;;;;;7286757;19;20180;-82
2023/06/04 01:40:14;;;;;;;5.23;1.23;;;15.20;90.70;;;;;;7285675;19;20199;-82
2023/06/04 01:42:41;;;;;;;2.40;1.10;;;15.00;91.40;;;;;;7286827;19;20200;-81
2023/06/04 01:45:08;;;;;;;5.50;1.40;;;15.00;91.80;;;;;;7285702;19;20252;-82
2023/06/04 01:47:34;;;;;;;4.50;1.40;;;14.90;92.30;;;;;;7286155;19;20203;-81
2023/06/04 01:50:03;;;;;;;2.77;1.20;;;14.90;92.40;;;;;;7285595;19;20196;-82
2023/06/04 01:52:29;;;;;;;5.00;1.37;;;14.90;92.20;;;;;;7285912;19;20212;-81
2023/06/04 01:54:55;;;;;;;4.93;1.23;;;15.10;92.00;;;;;;7308374;19;20653;-82
2023/06/04 01:57:25;;;;;;;3.77;1.30;;;15.10;91.90;;;;;;7286510;19;20190;-82
2023/06/04 01:59:51;;;;;;;5.83;1.10;;;15.10;92.10;;;;;;7284620;19;20640;-82
2023/06/04 02:02:16;;;;;;;5.80;1.60;;;15.00;92.50;;;;;;7286720;19;20243;-82
2023/06/04 02:04:42;;;;;;;7.10;1.83;;;14.80;92.90;;;;;;7285273;19;20519;-82
2023/06/04 02:07:09;;;;;;;4.80;1.50;;;14.90;92.70;;;;;;7285315;19;20189;-81
2023/06/04 02:09:36;;;;;;;5.20;1.40;;;14.90;92.60;;;;;;7285477;19;20188;-81
2023/06/04 02:12:01;;;;;;;4.60;1.30;;;14.80;92.90;;;;;;7284201;19;20192;-81
2023/06/04 02:14:27;;;;;;;3.90;1.50;;;14.80;92.80;;;;;;7288293;19;20184;-82
2023/06/04 02:16:57;;;;;;;7.80;1.47;;;14.90;92.70;;;;;;7307766;19;20187;-82
2023/06/04 02:19:25;;;;;;;4.20;1.40;;;14.90;93.00;;;;;;7287903;19;20644;-81
2023/06/04 02:21:52;;;;;;;5.47;1.60;;;15.00;92.90;;;;;;7291497;19;20185;-81
2023/06/04 02:24:18;;;;;;;2.80;1.30;;;15.00;93.10;;;;;;7302068;19;20190;-82
2023/06/04 02:26:43;;;;;;;3.37;1.40;;;14.80;93.40;;;;;;7303642;19;20197;-82
2023/06/04 02:29:09;;;;;;;8.40;1.50;;;14.90;93.40;;;;;;7313365;19;20205;-81
2023/06/04 02:31:35;;;;;;;3.70;1.40;;;14.70;93.80;;;;;;7307638;19;20188;-81
2023/06/04 02:34:01;;;;;;;6.73;1.80;;;14.70;94.10;;;;;;7299206;19;20173;-81
2023/06/04 02:36:30;;;;;;;3.33;1.70;;;14.70;94.40;;;;;;7299039;19;20197;-81
2023/06/04 02:38:56;;;;;;;7.63;1.80;;;14.50;95.00;;;;;;7319179;19;20198;-80
2023/06/04 02:41:23;;;;;;;5.43;1.70;;;14.50;95.30;;;;;;7309476;19;20719;-81
2023/06/04 02:43:49;;;;;;;6.77;2.07;;;14.50;95.60;;;;;;7298684;19;20294;-81
2023/06/04 02:46:15;;;;;;;3.53;1.70;;;14.40;96.30;;;;;;7298364;19;20567;-82
2023/06/04 02:48:40;;;;;;;5.20;1.77;;;14.20;96.90;;;;;;7299093;19;20186;-82
2023/06/04 02:51:09;;;;;;;5.33;1.83;;;14.20;97.50;;;;;;7298209;19;20194;-82
2023/06/04 02:53:36;;;;;;;6.23;2.10;;;14.20;97.90;;;;;;7296738;19;20605;-82
2023/06/04 02:56:02;;;;;;;4.57;2.17;;;14.30;97.90;;;;;;7298595;19;20285;-81
2023/06/04 02:58:28;;;;;;;8.87;2.00;;;14.30;98.40;;;;;;7303199;19;20188;-81
2023/06/04 03:00:55;;;;;;;8.03;2.00;;;14.30;98.50;;;;;;7319407;19;20560;-82
2023/06/04 03:03:21;;;;;;;4.33;1.80;;;14.30;98.70;;;;;;7297724;19;20661;-82
2023/06/04 03:05:47;;;;;;;4.57;1.87;;;14.30;99.10;;;;;;7297004;19;20180;-82
2023/06/04 03:08:13;;;;;;;4.90;1.80;;;14.30;99.50;;;;;;7297664;19;20190;-82
2023/06/04 03:10:39;;;;;;;7.67;2.10;;;14.20;99.90;;;;;;7297736;19;20186;-82
2023/06/04 03:13:05;;;;;;;6.57;2.00;;;14.30;99.90;;;;;;7297247;19;20205;-82
2023/06/04 03:15:31;;;;;;;4.97;2.00;;;14.20;99.90;;;;;;7297051;19;20214;-81
2023/06/04 03:17:57;;;;;;;5.90;2.37;;;14.10;99.90;;;;;;7312240;19;20690;-80
2023/06/04 03:20:24;;;;;;;6.57;2.50;;;14.10;99.90;;;;;;7311869;19;20204;-81
2023/06/04 03:22:51;;;;;;;8.43;2.50;;;14.00;99.90;;;;;;7296517;19;20210;-81
2023/06/04 03:25:17;;;;;;;7.07;2.40;;;14.00;99.90;;;;;;7295628;19;21401;-81
2023/06/04 03:27:42;;;;;;;7.83;2.50;;;14.10;99.90;;;;;;7295471;19;20209;-81
2023/06/04 03:30:09;;;;;;;5.40;2.40;;;14.00;99.90;;;;;;7295917;19;20197;-81
2023/06/04 03:32:53;;;;;;;7.47;2.30;;;13.90;99.90;;;;;;7296569;19;20258;-81
2023/06/04 03:35:19;;;;;;;7.30;2.63;;;14.10;99.90;;;;;;7288095;19;20192;-81
2023/06/04 03:37:45;;;;;;;5.60;2.23;;;13.90;99.90;;;;;;7290091;19;20185;-81
2023/06/04 03:40:13;;;;;;;6.53;2.50;;;13.90;99.90;;;;;;7288961;19;20214;-81
2023/06/04 03:42:41;;;;;;;7.07;2.43;;;13.90;99.90;;;;;;7289291;19;20192;-81
2023/06/04 03:45:08;;;;;;;7.70;2.20;;;13.90;99.90;;;;;;7288069;19;20526;-81
2023/06/04 03:47:36;;;;;;;5.60;2.17;;;13.90;99.90;;;;;;7289679;19;20185;-81
2023/06/04 03:50:03;;;;;;;8.40;2.47;;;13.90;99.90;;;;;;7288263;19;20216;-81
2023/06/04 03:52:28;;;;;;;6.63;2.30;;;13.90;99.90;;;;;;7294361;19;20185;-80
2023/06/04 03:54:57;;;;;;;5.00;2.50;;;13.90;99.90;;;;;;7310409;19;20189;-79
2023/06/04 03:57:23;;;;;;;5.00;2.00;;;14.00;99.90;;;;;;7303795;19;20205;-81
2023/06/04 03:59:50;;;;;;;9.93;2.40;;;14.00;99.90;;;;;;7287502;19;20224;-81
2023/06/04 04:02:18;;;;;;;5.50;2.40;;;14.00;99.90;;;;;;7288865;19;20267;-82
2023/06/04 04:04:44;;;;;;;6.50;2.10;;;14.00;99.90;;;;;;7287933;19;20203;-81
2023/06/04 04:07:10;;;;;;;6.60;2.63;;;14.00;99.90;;;;;;7288824;19;20193;-81
2023/06/04 04:09:37;;;;;;;4.57;2.20;;;14.10;99.90;;;;;;7289038;19;20529;-81
2023/06/04 04:12:04;;;;;;;7.60;2.10;;;14.10;99.90;;;;;;7289423;19;20186;-81
2023/06/04 04:14:30;;;;;;;5.03;2.30;;;14.10;99.90;;;;;;7288480;19;20192;-81
2023/06/04 04:16:56;;;;;;;5.40;2.40;;;14.10;99.90;;;;;;7310884;19;20187;-81
2023/06/04 04:19:22;;;;;;;8.37;2.70;;;14.20;99.90;;;;;;7288178;19;20186;-81
2023/06/04 04:21:48;;;;;;;7.90;2.50;;;14.20;99.90;;;;;;7288001;19;20183;-81
2023/06/04 04:24:23;;;;;;;6.90;2.40;;;14.40;99.90;;;;;;7287841;19;20254;-81
2023/06/04 04:26:52;;;;;;;8.43;2.30;;;14.40;99.90;;;;;;7285229;19;21007;-81
2023/06/04 04:29:22;;;;;;;6.77;2.60;;;14.30;99.90;;;;;;7288712;19;20697;-81
2023/06/04 04:31:50;;;;;;;6.17;2.53;;;14.30;99.90;;;;;;7287573;19;21663;-81
2023/06/04 04:34:17;;;;;;;6.93;2.30;;;14.70;99.90;;;;;;7287763;19;20210;-81
2023/06/04 04:36:44;;;;;;;6.70;2.30;;;15.60;99.90;;;;;;7290091;19;20207;-81
2023/06/04 04:39:10;;;;;;;8.93;2.70;;;16.70;99.90;;;;;;7289841;19;20191;-81
2023/06/04 04:41:38;;;;;;;6.00;2.20;;;17.40;99.90;;;;;;7283142;19;20197;-81
2023/06/04 04:44:05;;;;;;;9.30;2.80;;;18.00;99.90;;;;;;7287860;19;20185;-81
2023/06/04 04:46:31;;;;;;;5.00;2.10;;;18.80;99.90;;;;;;7286991;19;20198;-80
2023/06/04 04:48:57;;;;;;;8.77;2.37;;;19.40;99.90;;;;;;7306821;19;20186;-79
2023/06/04 04:51:23;;;;;;;7.30;2.33;;;20.00;99.90;;;;;;7301435;19;20210;-81
2023/06/04 04:53:51;;;;;;;6.13;2.20;;;20.00;99.90;;;;;;7286328;19;20195;-81
2023/06/04 04:56:17;;;;;;;5.13;2.43;;;20.30;99.90;;;;;;7288964;19;20205;-82
2023/06/04 04:58:48;;;;;;;6.20;2.67;;;20.90;99.90;;;;;;7287649;19;20709;-82
2023/06/04 05:01:13;;;;;;;6.10;2.27;;;21.40;99.10;;;;;;7286978;19;20501;-81
2023/06/04 05:03:41;;;;;;;5.57;2.30;;;22.00;97.30;;;;;;7287717;19;20549;-82
2023/06/04 05:06:08;;;;;;;7.93;2.40;;;22.20;95.70;;;;;;7286310;19;20191;-81
2023/06/04 05:08:34;;;;;;;5.70;2.23;;;23.10;94.40;;;;;;7289246;19;20181;-81
2023/06/04 05:11:00;;;;;;;6.17;2.20;;;23.20;93.50;;;;;;7289184;19;20185;-81
2023/06/04 05:13:25;;;;;;;5.87;2.27;;;23.10;92.70;;;;;;7308548;19;20202;-81
2023/06/04 05:15:58;;;;;;;5.93;2.53;;;23.70;92.30;;;;;;7284652;19;20204;-79
2023/06/04 05:18:28;;;;;;;6.53;2.10;;;24.30;91.20;;;;;;7309077;19;20185;-81
2023/06/04 05:20:59;;;;;;;6.43;2.43;;;23.90;89.50;;;;;;7286854;19;20188;-80
2023/06/04 05:23:26;;;;;;;7.53;2.30;;;23.30;90.00;;;;;;7288866;19;20673;-80
2023/06/04 05:25:52;;;;;;;5.20;2.30;;;23.90;90.50;;;;;;7287937;19;20276;-81
2023/06/04 05:28:20;;;;;;;5.43;2.33;;;24.10;88.70;;;;;;7288142;19;20196;-81
2023/06/04 05:30:48;;;;;;;5.13;2.20;;;23.90;89.50;;;;;;7289200;19;20193;-81
2023/06/04 05:33:21;;;;;;;8.10;2.80;;;24.40;87.90;;;;;;7287587;19;20649;-81
2023/06/04 05:35:57;;;;;;;5.20;2.30;;;24.20;87.10;;;;;;7288255;19;20201;-80
2023/06/04 05:38:30;;;;;;;8.17;2.50;;;23.90;88.10;;;;;;7290532;19;20184;-81
2023/06/04 05:40:59;;;;;;;6.40;2.43;;;24.50;88.50;;;;;;7267149;19;20180;-81
2023/06/04 05:43:30;;;;;;;7.13;2.50;;;24.70;87.30;;;;;;7286983;19;20189;-81
2023/06/04 05:45:56;;;;;;;4.93;2.30;;;24.30;86.60;;;;;;7308942;19;20558;-81
2023/06/04 05:48:22;;;;;;;9.77;2.50;;;23.90;87.40;;;;;;7285479;19;20247;-82
2023/06/04 05:50:47;;;;;;;5.77;2.43;;;24.40;85.10;;;;;;7286213;19;20289;-81
2023/06/04 05:53:15;;;;;;;6.57;2.70;;;23.90;86.90;;;;;;7287237;19;20200;-81
2023/06/04 05:55:41;;;;;;;5.93;2.33;;;23.80;88.00;;;;;;7290640;19;20188;-80
2023/06/04 05:58:07;;;;;;;4.10;2.20;;;23.90;86.80;;;;;;7291452;19;20203;-80
2023/06/04 06:00:33;;;;;;;7.53;2.43;;;24.30;86.70;;;;;;7286577;19;20184;-79
2023/06/04 06:03:00;;;;;;;5.37;2.20;;;24.30;86.00;;;;;;7289553;19;20223;-80
2023/06/04 06:05:40;;;;;;;7.67;2.60;;;24.80;85.40;;;;;;7285780;19;20193;-82
2023/06/04 06:08:06;;;;;;;6.83;2.60;;;24.60;84.10;;;;;;7284034;19;20189;-81
2023/06/04 06:10:32;;;;;;;6.73;2.60;;;24.30;85.10;;;;;;7284011;19;20188;-80
2023/06/04 06:13:00;;;;;;;4.50;2.27;;;24.00;84.80;;;;;;7291612;19;20217;-80
2023/06/04 06:15:26;;;;;;;5.67;2.53;;;23.90;84.80;;;;;;7306507;19;20645;-80
2023/06/04 06:17:53;;;;;;;4.27;2.10;;;24.20;85.30;;;;;;7284453;19;20189;-80
2023/06/04 06:20:18;;;;;;;6.50;2.37;;;23.90;85.10;;;;;;7284008;19;20225;-81
2023/06/04 06:22:45;;;;;;;5.77;2.00;;;24.30;85.90;;;;;;7283481;19;20193;-81
2023/06/04 06:25:12;;;;;;;6.40;2.30;;;24.60;83.00;;;;;;7284374;19;20181;-81
2023/06/04 06:27:43;;;;;;;5.73;2.10;;;24.50;83.50;;;;;;7284010;19;20193;-82
2023/06/04 06:30:12;;;;;;;7.90;2.23;;;24.80;83.40;;;;;;7284831;19;20204;-82
2023/06/04 06:32:38;;;;;;;4.37;2.10;;;25.10;82.80;;;;;;7284862;19;20718;-80
2023/06/04 06:35:04;;;;;;;4.32;2.00;;;25.40;79.40;;;;;;7285822;19;20209;-80
2023/06/04 06:37:29;;;;;;;3.80;1.92;;;25.20;79.90;;;;;;7286030;19;20198;-81
2023/06/04 06:39:55;;;;;;;5.88;2.58;;;24.90;79.40;;;;;;7307620;19;20732;-82
2023/06/04 06:42:21;;;;;;;8.32;2.20;;;25.90;81.40;;;;;;7286250;19;20569;-82
2023/06/04 06:44:49;;;;;;;6.90;2.15;;;25.90;78.80;;;;;;7283808;19;20606;-82
2023/06/04 06:47:15;;;;;;;4.00;1.92;;;25.50;76.40;;;;;;7283466;19;20219;-83
2023/06/04 06:49:41;;;;;;;5.45;1.90;;;25.10;78.00;;;;;;7283228;19;20188;-81
2023/06/04 06:52:06;;;;;;;5.22;2.17;;;25.00;79.10;;;;;;7283182;19;20207;-81
2023/06/04 06:54:32;;;;;;;4.95;1.98;;;24.80;79.50;;;;;;7282385;19;20194;-81
2023/06/04 06:56:58;;;;;;;4.25;1.70;;;24.80;79.50;;;;;;7295456;19;20317;-82
2023/06/04 06:59:25;;;;;;;6.35;2.15;;;25.10;78.10;;;;;;7302474;19;20284;-82
2023/06/04 07:01:51;;;;;;;4.68;2.00;;;24.80;76.70;;;;;;7284277;19;20217;-81
2023/06/04 07:04:17;;;;;;;4.00;2.03;;;24.20;77.80;;;;;;7283857;19;20570;-82
2023/06/04 07:06:43;;;;;;;4.95;1.80;;;24.00;78.60;;;;;;7282411;19;20192;-82
2023/06/04 07:09:09;;;;;;;5.15;1.88;;;24.90;78.70;;;;;;7288223;19;20196;-81
2023/06/04 07:11:35;;;;;;;5.05;1.80;;;25.40;77.70;;;;;;7290038;19;20192;-81
2023/06/04 07:14:04;;;;;;;5.40;1.90;;;26.00;75.30;;;;;;7289800;19;20225;-81
2023/06/04 07:16:30;;;;;;;5.75;1.85;;;26.10;73.80;;;;;;7291617;19;20244;-80
2023/06/04 07:18:55;;;;;;;5.85;1.63;;;27.70;73.80;;;;;;7310481;19;20189;-81
2023/06/04 07:21:23;;;;;;;7.20;1.90;;;29.50;69.90;;;;;;7292426;19;20276;-81
2023/06/04 07:23:50;;;;;;;4.47;1.73;;;30.10;68.30;;;;;;7291491;19;20182;-81
2023/06/04 07:26:19;;;;;;;3.00;1.73;;;28.90;66.40;;;;;;7288746;19;20542;-81
2023/06/04 07:28:45;;;;;;;4.25;1.67;;;28.30;67.20;;;;;;7291704;19;20204;-82
2023/06/04 07:31:11;;;;;;;6.63;1.75;;;28.30;69.30;;;;;;7291041;19;20196;-80
2023/06/04 07:33:42;;;;;;;3.85;1.60;;;28.50;66.80;;;;;;7288941;19;20673;-79
2023/06/04 07:36:13;;;;;;;4.60;1.80;;;28.00;66.30;;;;;;7288731;19;20641;-80
2023/06/04 07:38:38;;;;;;;3.03;1.45;;;27.40;66.80;;;;;;7288805;19;20200;-80
2023/06/04 07:41:04;;;;;;;5.35;1.70;;;27.40;66.80;;;;;;7290022;19;20181;-79
2023/06/04 07:43:30;;;;;;;6.88;2.05;;;26.90;67.40;;;;;;7288806;19;20185;-79
2023/06/04 07:45:56;;;;;;;6.07;1.80;;;27.00;68.60;;;;;;7311856;19;20193;-79
2023/06/04 07:48:22;;;;;;;6.25;1.70;;;27.80;66.60;;;;;;7290288;19;20181;-79
2023/06/04 07:50:47;;;;;;;10.15;1.65;;;27.80;64.20;;;;;;7288423;19;20205;-79
2023/06/04 07:53:13;;;;;;;5.57;1.42;;;27.20;65.00;;;;;;7284912;19;20685;-79
2023/06/04 07:55:39;;;;;;;4.18;1.77;;;26.70;66.00;;;;;;7288693;19;20189;-79
2023/06/04 07:58:05;;;;;;;4.95;1.70;;;28.10;66.80;;;;;;7288219;19;20185;-79
2023/06/04 08:00:30;;;;;;;5.68;1.88;;;28.70;63.70;;;;;;7288587;19;20281;-79
2023/06/04 08:02:56;;;;;;;4.75;1.40;;;29.40;63.50;;;;;;7311120;19;20185;-79
2023/06/04 08:05:23;;;;;;;3.50;1.60;;;29.90;62.40;;;;;;7287855;19;20668;-80
2023/06/04 08:07:48;;;;;;;4.43;1.70;;;30.30;60.70;;;;;;7288905;19;20186;-80
2023/06/04 08:10:14;;;;;;;3.65;1.30;;;29.80;60.90;;;;;;7289650;19;20218;-80
2023/06/04 08:12:40;;;;;;;3.33;1.60;;;30.20;61.40;;;;;;7289462;19;20201;-81
2023/06/04 08:15:07;;;;;;;6.13;1.75;;;29.70;60.70;;;;;;7287792;19;20286;-81
2023/06/04 08:17:32;;;;;;;3.10;1.38;;;30.00;61.30;;;;;;7289929;19;20188;-80
2023/06/04 08:19:58;;;;;;;4.00;1.52;;;29.60;61.70;;;;;;7298608;19;20209;-79
2023/06/04 08:22:24;;;;;;;3.55;1.45;;;29.60;60.40;;;;;;7305360;19;20279;-81
2023/06/04 08:24:50;;;;;;;4.18;1.50;;;29.50;62.50;;;;;;7287078;19;20191;-80
2023/06/04 08:27:17;;;;;;;6.00;1.50;;;29.40;60.00;;;;;;7287223;19;20625;-81
2023/06/04 08:29:43;;;;;;;3.58;1.30;;;28.80;60.00;;;;;;7288690;19;20188;-80
2023/06/04 08:32:09;;;;;;;4.15;1.48;;;28.80;61.40;;;;;;7286441;19;20185;-79
2023/06/04 08:34:35;;;;;;;3.95;1.40;;;28.70;61.60;;;;;;7284311;19;20184;-79
2023/06/04 08:37:01;;;;;;;6.00;1.35;;;28.80;61.00;;;;;;7286992;19;20653;-78
2023/06/04 08:39:26;;;;;;;4.47;1.45;;;28.60;60.10;;;;;;7309080;19;20180;-80
2023/06/04 08:41:56;;;;;;;4.88;1.65;;;29.40;61.60;;;;;;7285565;19;20214;-79
2023/06/04 08:44:22;;;;;;;4.00;1.67;;;31.00;61.20;;;;;;7288829;19;20188;-78
2023/06/04 08:46:55;;;;;;;5.60;1.52;;;30.90;58.80;;;;;;7287137;19;20274;-80
2023/06/04 08:49:23;;;;;;;4.80;1.40;;;30.40;58.20;;;;;;7288825;19;20195;-79
2023/06/04 08:51:49;;;;;;;4.47;1.38;;;31.20;60.00;;;;;;7286319;19;20194;-81
2023/06/04 08:54:14;;;;;;;4.00;1.33;;;32.00;58.40;;;;;;7286626;19;20249;-80
2023/06/04 08:56:44;;;;;;;3.97;1.33;;;31.60;56.60;;;;;;7286578;19;20615;-80
2023/06/04 08:59:10;;;;;;;4.72;1.27;;;30.90;56.60;;;;;;7285495;19;20204;-79
2023/06/04 09:01:37;;;;;;;4.00;1.45;;;30.10;57.80;;;;;;7286523;19;20652;-80
2023/06/04 09:04:06;;;;;;;4.18;1.33;;;30.30;59.40;;;;;;7284672;19;21019;-80
2023/06/04 09:06:32;;;;;;;4.13;1.27;;;29.80;58.00;;;;;;7285105;19;20189;-79
2023/06/04 09:09:00;;;;;;;5.13;1.20;;;29.60;57.00;;;;;;7307024;19;20244;-79
2023/06/04 09:11:54;;;;;;;4.63;1.40;;;29.50;59.10;;;;;;7309918;19;20201;-78
2023/06/04 09:14:21;;;;;;;4.72;1.30;;;29.50;56.80;;;;;;7185670;19;2005077;-79
2023/06/04 09:16:48;;;;;;;5.10;1.35;;;29.50;57.20;;;;;;7288751;19;20453;-78
2023/06/04 09:19:15;;;;;;;5.28;1.30;;;29.70;57.40;;;;;;7292135;19;20528;-78
2023/06/04 09:21:51;;;;;;;4.07;1.17;;;30.30;56.50;;;;;;7296238;19;20192;-78
2023/06/04 09:24:17;;;;;;;4.07;1.58;;;29.90;56.30;;;;;;7288344;19;20252;-78
2023/06/04 09:26:43;;;;;;;5.22;1.60;;;29.70;56.10;;;;;;7285318;19;20196;-80
2023/06/04 09:29:09;;;;;;;3.78;1.30;;;30.50;57.30;;;;;;7285891;19;20216;-80
2023/06/04 09:31:39;;;;;;;4.40;1.50;;;30.30;56.30;;;;;;7283928;19;20193;-80
2023/06/04 09:34:05;;;;;;;3.95;1.25;;;30.40;57.90;;;;;;7285877;19;20192;-79
2023/06/04 09:36:35;;;;;;;3.22;1.27;;;30.80;57.60;;;;;;7287098;19;20189;-80
2023/06/04 09:39:03;;;;;;;6.63;1.40;;;31.40;55.60;;;;;;7284608;19;20290;-79
2023/06/04 09:41:29;;;;;;;7.10;1.60;;;31.40;54.80;;;;;;7290744;19;20200;-79
2023/06/04 09:44:05;;;;;;;5.15;1.45;;;31.50;54.90;;;;;;7308191;19;20280;-80
2023/06/04 09:46:31;;;;;;;3.20;1.60;;;30.90;54.90;;;;;;7264546;19;20204;-79
2023/06/04 09:49:02;;;;;;;3.20;1.40;;;30.90;54.70;;;;;;7306859;19;20225;-79
2023/06/04 09:51:28;;;;;;;4.05;1.67;;;31.40;54.80;;;;;;7300598;19;20193;-79
2023/06/04 09:53:58;;;;;;;4.38;1.33;;;31.30;53.30;;;;;;7307903;19;20635;-79
2023/06/04 09:56:26;;;;;;;3.42;1.40;;;31.60;55.00;;;;;;7285563;19;20212;-80
2023/06/04 09:59:02;;;;;;;4.07;1.50;;;31.40;52.70;;;;;;7286343;19;20734;-80
2023/06/04 10:01:30;;;;;;;3.65;1.20;;;30.50;55.00;;;;;;7270246;19;20184;-79
2023/06/04 10:04:02;;;;;;;5.47;1.55;;;30.30;54.00;;;;;;7307339;19;20192;-80
2023/06/04 10:06:32;;;;;;;5.07;1.33;;;30.00;54.30;;;;;;7273152;19;20286;-79
2023/06/04 10:09:03;;;;;;;5.38;1.60;;;30.00;55.30;;;;;;7293543;19;20235;-79
2023/06/04 10:11:35;;;;;;;3.40;1.30;;;30.00;53.70;;;;;;7284067;19;20200;-79
2023/06/04 10:14:09;;;;;;;3.70;1.35;;;30.40;55.00;;;;;;7283590;19;20192;-79
2023/06/04 10:16:39;;;;;;;4.82;2.00;;;31.30;53.80;;;;;;7285195;19;20201;-80
2023/06/04 10:19:07;;;;;;;4.60;1.50;;;30.60;54.80;;;;;;7283981;19;20200;-80
2023/06/04 10:21:35;;;;;;;5.18;1.77;;;30.30;54.60;;;;;;7283911;19;20188;-79
2023/06/04 10:24:00;;;;;;;7.28;1.83;;;30.30;53.10;;;;;;7283920;19;20197;-79
2023/06/04 10:26:26;;;;;;;6.65;1.60;;;30.00;54.10;;;;;;7303754;19;20193;-80
2023/06/04 10:28:53;;;;;;;4.97;1.50;;;29.50;53.70;;;;;;7282943;19;20213;-80
2023/06/04 10:31:19;;;;;;;5.25;1.52;;;29.20;53.90;;;;;;7285491;19;20201;-80
2023/06/04 10:33:45;;;;;;;5.43;1.35;;;29.50;53.40;;;;;;7284850;19;20185;-80
2023/06/04 10:36:22;;;;;;;3.40;1.40;;;30.90;55.40;;;;;;7284037;19;20300;-80
2023/06/04 10:38:50;;;;;;;2.75;1.17;;;31.00;52.10;;;;;;7283906;19;20182;-81
2023/06/04 10:41:17;;;;;;;3.53;1.20;;;30.30;53.20;;;;;;7284124;19;20189;-81
2023/06/04 10:43:45;;;;;;;5.30;1.60;;;30.50;53.20;;;;;;7287646;19;20208;-81
2023/06/04 10:46:15;;;;;;;4.25;1.40;;;30.90;51.40;;;;;;7290098;19;20192;-81
2023/06/04 10:48:48;;;;;;;4.53;1.40;;;30.90;51.20;;;;;;7290032;19;20181;-81
2023/06/04 10:51:14;;;;;;;3.60;1.15;;;29.90;52.00;;;;;;7292170;19;20661;-81
2023/06/04 10:53:40;;;;;;;5.25;1.70;;;29.50;51.10;;;;;;7289232;19;20645;-80
2023/06/04 10:56:06;;;;;;;7.10;1.70;;;29.20;52.40;;;;;;7290038;19;20203;-80
2023/06/04 10:58:35;;;;;;;7.90;1.60;;;29.90;52.70;;;;;;7291956;19;20216;-80
2023/06/04 11:01:01;;;;;;;4.95;1.40;;;30.40;52.60;;;;;;7291566;19;20196;-80
2023/06/04 11:03:39;;;;;;;5.95;1.55;;;30.50;51.80;;;;;;7312205;19;20181;-81
2023/06/04 11:06:16;;;;;;;6.03;1.65;;;30.90;51.40;;;;;;7188174;19;2005092;-80
2023/06/04 11:08:42;;;;;;;7.60;1.60;;;30.20;51.90;;;;;;7288049;19;20274;-80
2023/06/04 11:11:15;;;;;;;6.47;1.58;;;30.10;51.70;;;;;;7289977;19;20232;-80
2023/06/04 11:13:42;;;;;;;4.38;1.95;;;31.20;51.90;;;;;;7289416;19;20200;-80
2023/06/04 11:16:21;;;;;;;5.18;1.60;;;32.40;51.80;;;;;;7289372;19;20199;-80
2023/06/04 11:18:57;;;;;;;8.38;2.85;;;31.80;48.80;;;;;;7289817;19;20188;-79
2023/06/04 11:21:24;;;;;;;5.65;1.40;;;31.90;48.70;;;;;;7288874;19;20193;-81
2023/06/04 11:23:54;;;;;;;4.80;1.70;;;32.00;48.90;;;;;;7289412;19;20185;-81
2023/06/04 11:26:21;;;;;;;3.83;1.40;;;32.60;49.30;;;;;;7289272;19;20208;-80
2023/06/04 11:28:49;;;;;;;4.22;1.50;;;33.90;51.10;;;;;;7289443;19;20659;-80
2023/06/04 11:31:15;;;;;;;4.10;1.27;;;32.50;48.20;;;;;;7290505;19;20563;-80
2023/06/04 11:33:45;;;;;;;3.55;1.23;;;31.50;50.10;;;;;;7289708;19;20252;-80
2023/06/04 11:36:23;;;;;;;3.10;1.60;;;31.20;49.80;;;;;;7289826;19;20193;-81
2023/06/04 11:39:07;;;;;;;4.47;1.48;;;30.50;50.60;;;;;;7287736;19;20197;-81
2023/06/04 11:41:36;;;;;;;4.97;1.45;;;30.20;51.20;;;;;;7267296;19;20184;-80
2023/06/04 11:44:04;;;;;;;3.50;1.10;;;30.50;51.80;;;;;;7294415;19;20201;-80
2023/06/04 11:46:32;;;;;;;3.40;1.17;;;31.30;50.70;;;;;;7310158;19;20198;-80
2023/06/04 11:48:58;;;;;;;5.32;1.40;;;32.10;50.80;;;;;;7288415;19;20226;-81
2023/06/04 11:51:24;;;;;;;5.57;1.60;;;32.20;48.70;;;;;;7288371;19;20738;-80
2023/06/04 11:53:50;;;;;;;3.90;1.55;;;31.60;47.60;;;;;;7286938;19;20185;-80
2023/06/04 11:56:17;;;;;;;5.93;1.40;;;31.60;48.60;;;;;;7285555;19;20682;-80
2023/06/04 11:58:43;;;;;;;4.40;1.45;;;31.80;48.40;;;;;;7289188;19;20539;-80
2023/06/04 12:01:09;;;;;;;6.30;1.70;;;31.70;48.30;;;;;;7288177;19;20698;-81
2023/06/04 12:03:40;;;;;;;3.10;1.30;;;31.20;48.80;;;;;;7288488;19;20214;-80
2023/06/04 12:06:24;;;;;;;7.68;1.75;;;30.30;51.50;;;;;;7286970;19;20652;-80
2023/06/04 12:08:55;;;;;;;6.25;2.00;;;28.80;50.20;;;;;;7285821;19;20193;-80
2023/06/04 12:11:32;;;;;;;5.55;1.50;;;28.10;51.30;;;;;;7286725;19;20189;-80
2023/06/04 12:14:05;;;;;;;3.05;1.23;;;27.60;52.80;;;;;;7288515;19;20656;-80
2023/06/04 12:16:32;;;;;;;2.95;1.20;;;27.40;54.70;;;;;;7288102;19;20219;-79
2023/06/04 12:19:08;;;;;;;5.00;1.40;;;26.90;53.80;;;;;;7287976;19;20193;-80
2023/06/04 12:21:34;;;;;;;6.57;1.35;;;26.70;55.40;;;;;;7264469;19;20192;-79
2023/06/04 12:24:10;;;;;;;4.97;1.50;;;26.40;54.80;;;;;;7308545;19;20306;-80
2023/06/04 12:26:43;;;;;;;3.40;1.25;;;26.20;52.90;;;;;;7262744;19;20278;-80
2023/06/04 12:29:17;;;;;;;3.90;1.58;;;26.20;54.30;;;;;;7288067;19;20181;-81
2023/06/04 12:31:45;;;;;;;6.32;1.75;;;26.20;54.80;;;;;;7286617;19;20189;-80
2023/06/04 12:34:14;;;;;;;4.47;1.60;;;26.10;52.90;;;;;;7288194;19;20236;-80
2023/06/04 12:36:40;;;;;;;5.32;1.30;;;25.60;53.30;;;;;;7298888;19;20190;-80
2023/06/04 12:39:06;;;;;;;6.00;1.30;;;25.70;56.50;;;;;;7302612;19;20188;-80
2023/06/04 12:41:33;;;;;;;5.07;1.20;;;25.90;52.90;;;;;;7300928;19;20231;-79
2023/06/04 12:43:59;;;;;;;4.47;1.50;;;26.20;54.70;;;;;;7307965;19;20714;-80
2023/06/04 12:46:25;;;;;;;3.33;1.50;;;26.40;54.20;;;;;;7287417;19;20199;-80
2023/06/04 12:48:52;;;;;;;5.55;1.48;;;26.40;55.70;;;;;;7286843;19;20677;-80